Time;durP1;ratioP1;P1;durP2;ratioP2;P2;SDS_P1;SDS_P2;PMS_P1;PMS_P2;Temp;Humidity;BMP_temperature;BMP_pressure;BME280_temperature;BME280_humidity;BME280_pressure;Samples;Min_cycle;Max_cycle;Signal;HPM_P1;HPM_P2
2021/03/20 00:00:41;;;;;;;3.23;1.90;;;-2.40;99.90;;;;;;4919328;28;119342;-63
2021/03/20 00:03:08;;;;;;;5.07;2.43;;;-2.50;99.90;;;;;;4919996;28;119691;-62
2021/03/20 00:05:34;;;;;;;4.30;1.87;;;-2.50;99.90;;;;;;4921396;28;118228;-61
2021/03/20 00:08:03;;;;;;;2.40;2.10;;;-2.50;99.90;;;;;;4921017;28;118555;-62
2021/03/20 00:10:30;;;;;;;4.30;2.20;;;-2.50;99.90;;;;;;4919922;28;119847;-62
2021/03/20 00:12:57;;;;;;;5.27;2.00;;;-2.60;99.90;;;;;;4920491;28;118968;-62
2021/03/20 00:15:26;;;;;;;7.83;2.97;;;-2.70;99.90;;;;;;4920427;28;118392;-63
2021/03/20 00:17:54;;;;;;;6.03;2.87;;;-2.60;99.90;;;;;;4921316;28;118247;-62
2021/03/20 00:20:23;;;;;;;7.10;3.10;;;-3.30;99.90;;;;;;4919719;28;118718;-63
2021/03/20 00:22:49;;;;;;;4.50;2.80;;;-2.60;99.90;;;;;;4919809;28;118771;-61
2021/03/20 00:25:17;;;;;;;8.23;3.67;;;-2.60;99.90;;;;;;4921384;28;118492;-61
2021/03/20 00:27:43;;;;;;;6.43;2.77;;;-2.50;99.90;;;;;;4920795;28;118376;-61
2021/03/20 00:30:10;;;;;;;3.33;2.30;;;-2.50;99.90;;;;;;4920046;28;120072;-63
2021/03/20 00:32:37;;;;;;;4.73;2.40;;;-2.70;99.90;;;;;;4919701;28;119413;-63
2021/03/20 00:35:05;;;;;;;4.47;2.57;;;-2.60;99.90;;;;;;4921307;28;118390;-61
2021/03/20 00:37:31;;;;;;;3.87;2.27;;;-2.70;99.90;;;;;;4920723;28;118379;-63
2021/03/20 00:39:58;;;;;;;6.67;2.87;;;-2.70;99.90;;;;;;4919971;28;119660;-63
2021/03/20 00:42:25;;;;;;;3.00;2.20;;;-2.70;99.90;;;;;;4920125;28;119040;-64
2021/03/20 00:44:52;;;;;;;5.47;2.30;;;-2.70;99.90;;;;;;4920667;28;118267;-65
2021/03/20 00:47:18;;;;;;;5.47;2.73;;;-2.80;99.90;;;;;;4920054;28;118634;-63
2021/03/20 00:49:45;;;;;;;6.47;2.90;;;-2.80;99.90;;;;;;4919557;28;119243;-63
2021/03/20 00:52:12;;;;;;;5.93;2.37;;;-2.80;99.90;;;;;;4919063;28;119935;-62
2021/03/20 00:54:38;;;;;;;4.73;2.50;;;-2.90;99.90;;;;;;4902557;28;118485;-63
2021/03/20 00:57:05;;;;;;;4.40;2.13;;;-2.90;99.90;;;;;;4920562;28;118226;-62
2021/03/20 00:59:32;;;;;;;4.00;2.20;;;-2.90;99.90;;;;;;4919768;28;119205;-62
2021/03/20 01:01:58;;;;;;;3.60;2.13;;;-2.80;99.90;;;;;;4920031;28;118532;-62
2021/03/20 01:04:25;;;;;;;3.77;2.47;;;-2.90;99.90;;;;;;4919711;28;118473;-63
2021/03/20 01:06:52;;;;;;;5.43;2.23;;;-3.00;99.90;;;;;;4919407;28;118077;-64
2021/03/20 01:09:18;;;;;;;4.53;2.40;;;-2.80;99.90;;;;;;4918195;28;120114;-63
2021/03/20 01:11:44;;;;;;;5.90;2.70;;;-3.00;99.90;;;;;;4918578;28;118260;-65
2021/03/20 01:14:11;;;;;;;6.17;2.83;;;-2.90;99.90;;;;;;4919638;28;118518;-63
2021/03/20 01:16:38;;;;;;;3.60;2.17;;;-3.00;99.90;;;;;;4919252;28;118246;-64
2021/03/20 01:19:05;;;;;;;4.60;2.17;;;-3.00;99.90;;;;;;4918920;28;119470;-62
2021/03/20 01:21:31;;;;;;;3.57;2.20;;;-3.00;99.90;;;;;;4918742;28;118375;-62
2021/03/20 01:23:57;;;;;;;7.50;2.53;;;-3.10;99.90;;;;;;4920138;28;117943;-63
2021/03/20 01:26:24;;;;;;;3.80;2.23;;;-3.10;99.90;;;;;;4919500;28;117955;-63
2021/03/20 01:28:50;;;;;;;2.83;2.07;;;-3.10;99.90;;;;;;4918622;28;118522;-63
2021/03/20 01:31:20;;;;;;;4.57;2.30;;;-3.00;99.90;;;;;;4900962;28;118864;-63
2021/03/20 01:33:47;;;;;;;4.07;2.73;;;-3.20;99.90;;;;;;4919216;28;118122;-64
2021/03/20 01:36:13;;;;;;;5.20;2.40;;;-3.00;99.90;;;;;;4919398;28;118494;-63
2021/03/20 01:38:40;;;;;;;4.77;2.23;;;-3.10;99.90;;;;;;4917586;28;118775;-64
2021/03/20 01:41:08;;;;;;;5.67;2.77;;;-3.00;99.90;;;;;;4894819;28;120605;-61
2021/03/20 01:43:36;;;;;;;6.57;2.93;;;-3.30;99.90;;;;;;4920571;28;118407;-63
2021/03/20 01:46:37;;;;;;;7.47;3.00;;;-3.30;99.90;;;;;;4923043;28;118231;-64
2021/03/20 01:49:16;;;;;;;7.53;2.60;;;-3.20;99.90;;;;;;4902343;28;119019;-64
2021/03/20 01:51:44;;;;;;;5.67;2.03;;;-3.20;99.90;;;;;;4921160;28;117970;-63
2021/03/20 01:54:11;;;;;;;5.93;2.37;;;-2.30;99.90;;;;;;4924164;28;118302;-63
2021/03/20 01:56:42;;;;;;;4.90;2.77;;;-3.30;99.90;;;;;;4921849;28;118167;-63
2021/03/20 01:59:11;;;;;;;7.03;3.20;;;-3.30;99.90;;;;;;4921004;28;119385;-64
2021/03/20 02:01:40;;;;;;;7.37;3.13;;;-3.30;99.90;;;;;;4921296;28;118744;-64
2021/03/20 02:04:08;;;;;;;3.73;2.30;;;-2.80;99.90;;;;;;4920921;28;118265;-63
2021/03/20 02:06:35;;;;;;;6.43;2.53;;;-3.40;99.90;;;;;;4921803;28;118073;-63
2021/03/20 02:09:08;;;;;;;5.13;2.77;;;-3.30;99.90;;;;;;4921645;28;118713;-64
2021/03/20 02:11:39;;;;;;;4.37;2.63;;;-2.80;99.90;;;;;;4921126;28;119083;-64
2021/03/20 02:14:17;;;;;;;8.07;2.43;;;-3.30;99.90;;;;;;4922267;28;118244;-64
2021/03/20 02:16:51;;;;;;;3.57;2.20;;;-3.50;99.90;;;;;;4922629;28;118027;-63
2021/03/20 02:19:39;;;;;;;4.50;2.77;;;-3.40;99.90;;;;;;4920575;28;118995;-63
2021/03/20 02:22:11;;;;;;;5.50;2.20;;;-3.50;99.90;;;;;;4921363;28;118220;-63
2021/03/20 02:25:09;;;;;;;5.53;3.00;;;-3.50;99.90;;;;;;4922067;28;118315;-63
2021/03/20 02:27:56;;;;;;;8.07;2.70;;;-3.40;99.90;;;;;;4922123;28;118389;-63
2021/03/20 02:31:08;;;;;;;4.27;2.80;;;-2.60;99.90;;;;;;4920334;28;118994;-63
2021/03/20 02:33:47;;;;;;;4.80;2.20;;;-3.60;99.90;;;;;;4884451;28;118519;-63
2021/03/20 02:36:23;;;;;;;4.73;2.37;;;-3.60;99.90;;;;;;4922387;28;118159;-63
2021/03/20 02:38:53;;;;;;;4.80;2.50;;;-3.70;99.90;;;;;;4921661;28;118324;-63
2021/03/20 02:41:29;;;;;;;6.07;2.37;;;-3.60;99.90;;;;;;4920718;28;118978;-63
2021/03/20 02:44:05;;;;;;;4.57;2.50;;;-3.60;99.90;;;;;;4903498;28;118683;-63
2021/03/20 02:46:37;;;;;;;5.90;2.80;;;-3.60;99.90;;;;;;4920958;28;118129;-62
2021/03/20 02:49:13;;;;;;;5.87;2.83;;;-3.70;99.90;;;;;;4921730;28;118368;-63
2021/03/20 02:51:47;;;;;;;5.83;2.47;;;-3.70;99.90;;;;;;4901392;28;119516;-63
2021/03/20 02:54:19;;;;;;;6.83;3.10;;;-3.80;99.90;;;;;;4920795;28;118451;-64
2021/03/20 02:56:52;;;;;;;5.33;2.33;;;-3.80;99.90;;;;;;4920572;28;118656;-62
2021/03/20 02:59:22;;;;;;;3.70;2.57;;;-3.90;99.90;;;;;;4920993;28;118608;-63
2021/03/20 03:01:51;;;;;;;4.87;3.03;;;-3.90;99.90;;;;;;4920159;28;119023;-63
2021/03/20 03:04:23;;;;;;;4.53;2.63;;;-4.00;99.90;;;;;;4920424;28;119075;-65
2021/03/20 03:06:55;;;;;;;4.13;2.47;;;-3.90;99.90;;;;;;4921041;28;118509;-63
2021/03/20 03:09:28;;;;;;;5.20;2.60;;;-3.90;99.90;;;;;;4921072;28;118202;-63
2021/03/20 03:11:57;;;;;;;6.23;2.37;;;-4.00;99.90;;;;;;4919967;28;119454;-63
2021/03/20 03:14:29;;;;;;;5.33;2.43;;;-3.90;99.90;;;;;;4920779;28;118531;-63
2021/03/20 03:17:00;;;;;;;9.30;2.80;;;-4.00;99.90;;;;;;4920752;28;118058;-62
2021/03/20 03:19:35;;;;;;;5.33;3.07;;;-4.00;99.90;;;;;;4921509;28;118440;-63
2021/03/20 03:22:05;;;;;;;7.53;2.40;;;-4.10;99.90;;;;;;4918517;28;120362;-63
2021/03/20 03:24:34;;;;;;;6.17;2.57;;;-4.20;99.90;;;;;;4919648;28;119470;-62
2021/03/20 03:27:06;;;;;;;5.40;2.43;;;-4.20;99.90;;;;;;4920277;28;118162;-62
2021/03/20 03:29:35;;;;;;;6.93;3.03;;;-4.10;99.90;;;;;;4920894;28;118502;-63
2021/03/20 03:32:08;;;;;;;7.50;2.73;;;-3.10;99.90;;;;;;4920152;28;118735;-61
2021/03/20 03:34:45;;;;;;;3.50;2.43;;;-4.20;99.90;;;;;;4920119;28;118324;-63
2021/03/20 03:37:15;;;;;;;4.37;2.80;;;-4.30;99.90;;;;;;4920071;28;118175;-62
2021/03/20 03:39:46;;;;;;;5.23;2.80;;;-4.20;99.90;;;;;;4921441;28;118435;-64
2021/03/20 03:42:15;;;;;;;4.80;2.97;;;-4.30;99.90;;;;;;4919806;28;119110;-63
2021/03/20 03:44:43;;;;;;;6.40;2.90;;;-4.10;99.90;;;;;;4919521;28;119519;-61
2021/03/20 03:47:12;;;;;;;4.47;2.60;;;-3.60;99.90;;;;;;4919397;28;118274;-62
2021/03/20 03:49:39;;;;;;;6.73;2.67;;;-4.30;99.90;;;;;;4920569;28;118183;-61
2021/03/20 03:52:06;;;;;;;7.70;2.70;;;-4.30;99.90;;;;;;4918895;28;119042;-62
2021/03/20 03:54:34;;;;;;;7.53;2.63;;;-4.20;99.90;;;;;;4919085;28;119346;-62
2021/03/20 03:57:22;;;;;;;4.37;2.73;;;-4.50;99.90;;;;;;4920465;28;118113;-62
2021/03/20 04:00:03;;;;;;;5.30;2.43;;;-4.50;99.90;;;;;;4921037;28;118655;-62
2021/03/20 04:02:50;;;;;;;3.53;2.50;;;-3.60;99.90;;;;;;4919093;28;118444;-64
2021/03/20 04:05:26;;;;;;;7.13;2.83;;;-4.30;99.90;;;;;;4919451;28;119215;-62
2021/03/20 04:08:01;;;;;;;7.13;2.80;;;-4.40;99.90;;;;;;4920473;28;118412;-63
2021/03/20 04:10:33;;;;;;;4.47;2.50;;;-4.50;99.90;;;;;;4920702;28;117965;-62
2021/03/20 04:13:08;;;;;;;4.93;2.43;;;-4.50;99.90;;;;;;4919184;28;118649;-61
2021/03/20 04:15:52;;;;;;;4.83;2.53;;;-4.50;99.90;;;;;;4919182;28;118611;-62
2021/03/20 04:18:27;;;;;;;4.87;2.60;;;-4.50;99.90;;;;;;4919186;28;118185;-60
2021/03/20 04:21:04;;;;;;;9.77;3.40;;;-4.40;99.90;;;;;;4920448;28;118152;-63
2021/03/20 04:23:35;;;;;;;3.43;2.70;;;-4.50;99.90;;;;;;4919344;28;118612;-62
2021/03/20 04:26:07;;;;;;;6.10;3.17;;;-4.30;99.90;;;;;;4918752;28;118782;-61
2021/03/20 04:28:44;;;;;;;5.50;3.23;;;-4.30;99.90;;;;;;4919969;28;118286;-62
2021/03/20 04:31:19;;;;;;;6.30;2.93;;;-4.30;99.90;;;;;;4920588;28;118238;-61
2021/03/20 04:33:51;;;;;;;9.63;3.60;;;-4.40;99.90;;;;;;4919096;28;119674;-64
2021/03/20 04:36:23;;;;;;;7.10;3.10;;;-4.30;99.90;;;;;;4919208;28;118530;-60
2021/03/20 04:38:50;;;;;;;4.93;3.33;;;-4.40;99.90;;;;;;4920112;28;118350;-65
2021/03/20 04:41:17;;;;;;;6.70;3.30;;;-4.40;99.90;;;;;;4919936;28;118080;-62
2021/03/20 04:43:45;;;;;;;5.93;3.13;;;-4.40;99.90;;;;;;4919446;28;119031;-61
2021/03/20 04:46:16;;;;;;;5.93;2.93;;;-4.50;99.90;;;;;;4919091;28;119701;-61
2021/03/20 04:48:45;;;;;;;6.23;3.03;;;-4.60;99.90;;;;;;4920926;28;118318;-62
2021/03/20 04:51:31;;;;;;;6.20;2.90;;;-3.80;99.90;;;;;;4919462;28;118032;-64
2021/03/20 04:54:08;;;;;;;4.93;2.50;;;-4.50;99.90;;;;;;4918497;28;119107;-63
2021/03/20 04:56:41;;;;;;;6.53;2.77;;;-4.60;99.90;;;;;;4918626;28;119674;-60
2021/03/20 04:59:15;;;;;;;6.70;3.13;;;-4.50;99.90;;;;;;4920460;28;118425;-62
2021/03/20 05:01:47;;;;;;;3.90;2.40;;;-4.60;99.90;;;;;;4919039;28;118428;-62
2021/03/20 05:04:21;;;;;;;5.03;2.87;;;-4.60;99.90;;;;;;4918105;28;118740;-64
2021/03/20 05:06:49;;;;;;;6.97;3.03;;;-4.60;99.90;;;;;;4918515;28;118580;-63
2021/03/20 05:09:20;;;;;;;3.17;2.60;;;-4.70;99.90;;;;;;4919855;28;118308;-61
2021/03/20 05:11:55;;;;;;;7.13;3.10;;;-3.50;99.90;;;;;;4919621;28;118500;-64
2021/03/20 05:14:28;;;;;;;4.97;2.77;;;-4.70;99.90;;;;;;4918767;28;119775;-62
2021/03/20 05:16:56;;;;;;;7.83;2.80;;;-4.70;99.90;;;;;;4918389;28;119480;-63
2021/03/20 05:19:24;;;;;;;6.77;2.83;;;-4.70;99.90;;;;;;4927138;28;118350;-62
2021/03/20 05:21:54;;;;;;;6.20;2.73;;;-4.90;99.90;;;;;;4923358;28;118381;-62
2021/03/20 05:24:22;;;;;;;6.90;3.70;;;-4.30;99.90;;;;;;4922012;28;119509;-64
2021/03/20 05:26:49;;;;;;;5.30;3.17;;;-4.80;99.90;;;;;;4921646;28;118791;-60
2021/03/20 05:29:16;;;;;;;5.23;3.20;;;-3.70;99.90;;;;;;4922492;28;118369;-63
2021/03/20 05:31:42;;;;;;;10.27;3.53;;;-4.80;99.90;;;;;;4922762;28;118333;-62
2021/03/20 05:34:17;;;;;;;5.20;3.57;;;-4.60;99.90;;;;;;4921713;28;118990;-62
2021/03/20 05:36:43;;;;;;;6.53;3.53;;;-5.00;99.90;;;;;;4921958;28;118596;-63
2021/03/20 05:39:11;;;;;;;4.83;2.40;;;-4.80;99.90;;;;;;4922605;28;118454;-62
2021/03/20 05:41:49;;;;;;;103.00;13.60;;;-4.60;99.90;;;;;;4922463;28;119050;-62
2021/03/20 05:44:32;;;;;;;4.53;3.30;;;-4.50;99.90;;;;;;4921471;28;119007;-63
2021/03/20 05:47:05;;;;;;;4.60;3.43;;;-4.10;99.90;;;;;;4921222;28;118776;-63
2021/03/20 05:49:45;;;;;;;7.63;3.47;;;-4.40;99.90;;;;;;4923540;28;118158;-62
2021/03/20 05:52:42;;;;;;;5.97;2.93;;;-4.30;99.90;;;;;;4921992;28;118193;-62
2021/03/20 05:55:24;;;;;;;9.17;3.47;;;-4.20;99.90;;;;;;4919140;28;119013;-61
2021/03/20 05:57:59;;;;;;;3.87;2.90;;;-4.20;99.90;;;;;;4917373;28;119332;-62
2021/03/20 06:00:32;;;;;;;7.73;3.57;;;-4.00;99.90;;;;;;4918659;28;118467;-61
2021/03/20 06:03:12;;;;;;;8.73;3.53;;;-3.90;99.90;;;;;;4918617;28;119115;-61
2021/03/20 06:05:50;;;;;;;7.73;3.80;;;-3.60;99.90;;;;;;4917969;28;120087;-65
2021/03/20 06:08:38;;;;;;;6.70;3.50;;;-3.60;99.90;;;;;;4913168;28;119632;-63
2021/03/20 06:11:14;;;;;;;8.07;2.90;;;-3.30;99.90;;;;;;4918685;28;118326;-63
2021/03/20 06:13:55;;;;;;;8.80;3.57;;;-2.90;99.90;;;;;;4919408;28;118147;-62
2021/03/20 06:16:27;;;;;;;5.20;3.27;;;-2.80;99.90;;;;;;4917353;28;119303;-63
2021/03/20 06:19:24;;;;;;;5.47;3.20;;;-2.70;99.90;;;;;;4916664;28;118868;-62
2021/03/20 06:22:15;;;;;;;6.77;2.83;;;-2.50;99.90;;;;;;4918310;28;118310;-63
2021/03/20 06:25:11;;;;;;;6.67;2.83;;;-2.20;99.90;;;;;;4919094;28;118435;-63
2021/03/20 06:27:42;;;;;;;6.57;2.90;;;-1.90;99.90;;;;;;4917226;28;118459;-62
2021/03/20 06:30:23;;;;;;;6.73;2.87;;;-1.60;99.90;;;;;;4910464;28;118367;-62
2021/03/20 06:32:52;;;;;;;5.50;2.67;;;-1.50;99.90;;;;;;4918657;28;118106;-63
2021/03/20 06:35:34;;;;;;;7.23;3.40;;;-1.30;99.90;;;;;;4918290;28;118172;-63
2021/03/20 06:38:02;;;;;;;6.87;3.13;;;-1.10;99.90;;;;;;4917588;28;119095;-62
2021/03/20 06:40:45;;;;;;;6.07;3.80;;;-1.00;99.90;;;;;;4918156;28;119016;-62
2021/03/20 06:43:13;;;;;;;5.80;3.00;;;-0.60;99.90;;;;;;4919184;28;118334;-64
2021/03/20 06:45:40;;;;;;;8.57;3.73;;;-0.50;99.90;;;;;;4911850;28;118478;-65
2021/03/20 06:48:11;;;;;;;5.90;3.20;;;-0.40;99.90;;;;;;4916831;28;119492;-64
2021/03/20 06:50:41;;;;;;;7.03;2.83;;;-0.20;99.90;;;;;;4917322;28;118449;-64
2021/03/20 06:53:10;;;;;;;8.70;3.13;;;0.90;99.90;;;;;;4918163;28;118708;-65
2021/03/20 06:55:39;;;;;;;9.00;3.50;;;0.40;99.90;;;;;;4918080;28;119750;-63
2021/03/20 06:58:19;;;;;;;5.43;3.13;;;0.30;99.90;;;;;;4917260;28;119624;-64
2021/03/20 07:00:46;;;;;;;8.00;3.60;;;0.60;99.90;;;;;;4917370;28;119828;-63
2021/03/20 07:03:50;;;;;;;9.77;5.47;;;0.90;99.90;;;;;;4918063;28;118442;-64
2021/03/20 07:06:26;;;;;;;6.33;2.87;;;1.20;99.90;;;;;;4898626;28;118435;-64
2021/03/20 07:08:54;;;;;;;6.50;2.73;;;1.40;99.90;;;;;;4917687;28;119085;-63
2021/03/20 07:11:26;;;;;;;6.90;2.43;;;1.70;99.90;;;;;;4917382;28;119329;-64
2021/03/20 07:13:56;;;;;;;6.60;2.80;;;2.30;99.90;;;;;;4917939;28;118126;-63
2021/03/20 07:16:23;;;;;;;4.03;2.10;;;3.20;99.90;;;;;;4917441;28;118554;-64
2021/03/20 07:18:51;;;;;;;7.90;2.90;;;2.40;99.90;;;;;;4917388;28;119108;-63
2021/03/20 07:21:34;;;;;;;4.93;3.10;;;2.60;99.90;;;;;;4916971;28;119103;-62
2021/03/20 07:24:05;;;;;;;8.00;3.70;;;2.80;99.90;;;;;;4918055;28;118316;-63
2021/03/20 07:26:47;;;;;;;4.87;2.43;;;2.80;99.90;;;;;;4917911;28;118646;-63
2021/03/20 07:29:14;;;;;;;8.33;2.90;;;3.20;99.90;;;;;;4917711;28;118365;-62
2021/03/20 07:31:52;;;;;;;6.93;2.67;;;3.30;99.90;;;;;;4916686;28;118306;-62
2021/03/20 07:34:23;;;;;;;5.57;2.60;;;3.50;99.90;;;;;;4918618;28;118329;-62
2021/03/20 07:37:02;;;;;;;9.17;3.47;;;3.60;99.90;;;;;;4917719;28;118412;-62
2021/03/20 07:39:38;;;;;;;4.30;2.70;;;4.00;99.90;;;;;;4919874;28;119468;-63
2021/03/20 07:42:06;;;;;;;3.07;2.33;;;4.10;99.90;;;;;;4915990;28;118357;-62
2021/03/20 07:44:50;;;;;;;8.43;2.60;;;4.10;99.90;;;;;;4918042;28;118108;-62
2021/03/20 07:47:18;;;;;;;6.00;2.40;;;4.20;99.90;;;;;;4917950;28;118263;-63
2021/03/20 07:49:45;;;;;;;4.93;2.50;;;4.20;99.90;;;;;;4916986;28;119190;-61
2021/03/20 07:52:24;;;;;;;5.17;2.90;;;4.50;99.90;;;;;;4917526;28;119624;-62
2021/03/20 07:55:04;;;;;;;3.60;2.10;;;4.80;99.90;;;;;;4919042;28;118055;-62
2021/03/20 07:57:31;;;;;;;6.57;4.10;;;5.00;99.90;;;;;;4917923;28;118205;-61
2021/03/20 07:59:58;;;;;;;6.13;2.80;;;5.10;99.80;;;;;;4909851;28;118325;-63
2021/03/20 08:02:32;;;;;;;3.20;2.13;;;5.40;99.70;;;;;;4915400;28;118971;-63
2021/03/20 08:05:03;;;;;;;5.47;1.97;;;5.30;98.70;;;;;;4913987;28;118183;-63
2021/03/20 08:07:40;;;;;;;2.63;1.63;;;5.10;97.10;;;;;;4913759;28;118242;-63
2021/03/20 08:10:24;;;;;;;4.03;2.13;;;4.90;97.00;;;;;;4916432;28;118226;-63
2021/03/20 08:12:53;;;;;;;3.37;1.50;;;5.00;97.50;;;;;;4916028;28;118450;-62
2021/03/20 08:15:24;;;;;;;4.53;1.33;;;5.20;97.20;;;;;;4942334;28;117983;-63
2021/03/20 08:17:51;;;;;;;2.30;1.53;;;5.10;96.10;;;;;;4918290;28;117986;-63
2021/03/20 08:20:19;;;;;;;2.33;1.33;;;5.20;94.70;;;;;;4918116;28;118402;-64
2021/03/20 08:23:04;;;;;;;7.57;2.27;;;5.30;94.30;;;;;;4917760;28;119260;-63
2021/03/20 08:25:40;;;;;;;3.50;1.27;;;5.60;92.80;;;;;;4940524;28;117658;-63
2021/03/20 08:28:41;;;;;;;3.30;2.03;;;6.00;92.90;;;;;;4920701;28;117605;-64
2021/03/20 08:31:20;;;;;;;3.20;1.53;;;6.00;90.60;;;;;;4955565;28;117293;-64
2021/03/20 08:34:00;;;;;;;3.23;1.60;;;6.00;91.00;;;;;;4931129;28;117633;-63
2021/03/20 08:36:39;;;;;;;3.00;1.53;;;6.00;90.40;;;;;;4931026;28;117877;-62
2021/03/20 08:39:24;;;;;;;3.73;1.67;;;6.00;90.30;;;;;;4937014;28;117987;-63
2021/03/20 08:42:03;;;;;;;2.93;1.57;;;5.60;89.80;;;;;;4941271;28;115432;-63
2021/03/20 08:44:52;;;;;;;2.47;1.20;;;5.40;87.90;;;;;;4964872;28;117452;-62
2021/03/20 08:48:19;;;;;;;3.23;1.27;;;5.10;84.50;;;;;;4929275;28;117917;-63
2021/03/20 08:51:02;;;;;;;2.90;1.30;;;4.90;84.60;;;;;;4923858;28;20315;-63
2021/03/20 08:53:36;;;;;;;2.57;1.43;;;4.70;85.90;;;;;;4942012;28;20625;-63
2021/03/20 08:56:27;;;;;;;2.40;1.33;;;5.00;86.10;;;;;;4979316;28;20469;-63
2021/03/20 08:59:00;;;;;;;4.10;1.30;;;4.50;86.20;;;;;;4999868;28;20998;-63
2021/03/20 09:01:37;;;;;;;2.73;1.27;;;4.70;85.90;;;;;;5004939;28;20261;-63
2021/03/20 09:04:07;;;;;;;2.80;1.00;;;5.10;86.00;;;;;;5004814;28;20332;-63
2021/03/20 09:06:39;;;;;;;2.17;1.00;;;5.40;83.10;;;;;;5004914;28;20540;-63
2021/03/20 09:09:14;;;;;;;3.10;1.47;;;5.60;81.80;;;;;;5005655;28;20849;-63
2021/03/20 09:11:46;;;;;;;2.57;1.20;;;6.10;79.30;;;;;;4998803;28;20966;-63
2021/03/20 09:14:16;;;;;;;2.80;1.27;;;6.30;77.40;;;;;;5004591;28;20296;-63
2021/03/20 09:16:47;;;;;;;2.87;1.30;;;6.60;72.00;;;;;;5002599;28;20520;-63
2021/03/20 09:19:24;;;;;;;1.80;1.13;;;7.00;71.80;;;;;;4986352;28;24252;-63
2021/03/20 09:21:52;;;;;;;5.43;1.40;;;7.10;71.60;;;;;;5005238;28;20645;-64
2021/03/20 09:24:22;;;;;;;2.17;1.27;;;8.40;69.10;;;;;;5004438;28;20628;-64
2021/03/20 09:26:51;;;;;;;3.10;1.20;;;7.30;68.40;;;;;;5004547;28;20226;-63
2021/03/20 09:29:20;;;;;;;3.33;1.97;;;8.50;68.40;;;;;;5005576;28;20530;-63
2021/03/20 09:32:13;;;;;;;2.97;1.70;;;8.00;68.10;;;;;;5005232;28;20232;-63
2021/03/20 09:34:49;;;;;;;2.33;1.40;;;8.40;66.40;;;;;;5004414;28;20683;-63
2021/03/20 09:37:48;;;;;;;4.20;1.10;;;8.60;62.20;;;;;;5004091;28;20233;-63
2021/03/20 09:40:36;;;;;;;2.77;1.07;;;8.60;64.40;;;;;;4956976;28;20739;-63
2021/03/20 09:43:27;;;;;;;3.50;1.17;;;8.50;64.10;;;;;;4996605;28;20666;-63
2021/03/20 09:46:33;;;;;;;1.97;1.30;;;8.50;61.50;;;;;;5004586;28;20709;-64
2021/03/20 09:49:00;;;;;;;1.80;1.07;;;8.10;60.10;;;;;;5004368;28;20656;-63
2021/03/20 09:51:46;;;;;;;2.77;1.20;;;7.80;62.40;;;;;;5004475;28;20611;-63
2021/03/20 09:54:40;;;;;;;1.70;0.90;;;7.40;62.20;;;;;;5004354;28;20215;-63
2021/03/20 09:57:48;;;;;;;2.97;1.23;;;7.10;60.20;;;;;;5004161;28;20549;-63
2021/03/20 10:00:35;;;;;;;1.97;1.40;;;6.70;60.90;;;;;;4997539;28;20759;-63
2021/03/20 10:03:02;;;;;;;4.60;2.03;;;6.80;63.90;;;;;;5003612;28;20226;-63
2021/03/20 10:05:31;;;;;;;8.97;4.30;;;6.80;62.20;;;;;;5006975;28;20530;-61
2021/03/20 10:08:00;;;;;;;4.50;1.60;;;8.00;63.30;;;;;;5007414;28;20698;-63
2021/03/20 10:10:46;;;;;;;2.87;1.50;;;7.40;62.40;;;;;;5007823;28;20590;-62
2021/03/20 10:13:40;;;;;;;3.00;1.40;;;8.30;57.70;;;;;;5007634;28;20285;-63
2021/03/20 10:16:06;;;;;;;2.80;1.27;;;7.90;59.00;;;;;;5006698;28;20231;-62
2021/03/20 10:18:43;;;;;;;2.37;1.40;;;8.20;59.30;;;;;;5006439;28;20460;-62
2021/03/20 10:21:20;;;;;;;2.93;1.50;;;8.40;59.50;;;;;;5006793;28;20506;-62
2021/03/20 10:23:53;;;;;;;2.83;1.20;;;8.40;58.50;;;;;;5006997;28;20214;-63
2021/03/20 10:26:28;;;;;;;5.77;1.50;;;8.40;58.30;;;;;;5007558;28;20222;-61
2021/03/20 10:28:58;;;;;;;3.57;1.13;;;8.80;58.40;;;;;;5007784;28;20360;-63
2021/03/20 10:31:27;;;;;;;3.13;1.00;;;8.10;57.90;;;;;;5007170;28;20952;-62
2021/03/20 10:34:05;;;;;;;1.87;0.90;;;7.80;58.20;;;;;;5005657;28;26651;-63
2021/03/20 10:36:38;;;;;;;3.03;1.20;;;7.50;58.70;;;;;;5006583;28;20347;-63
2021/03/20 10:39:23;;;;;;;2.57;1.43;;;7.50;59.30;;;;;;5006183;28;20640;-62
2021/03/20 10:41:51;;;;;;;1.50;0.77;;;7.30;57.10;;;;;;5006938;28;20226;-62
2021/03/20 10:44:20;;;;;;;1.40;1.03;;;7.20;59.20;;;;;;4973457;28;112079;-61
2021/03/20 10:46:47;;;;;;;1.30;1.10;;;6.70;59.10;;;;;;4970515;28;112381;-62
2021/03/20 10:49:18;;;;;;;2.00;1.00;;;6.50;59.80;;;;;;4957680;28;115094;-63
2021/03/20 10:51:47;;;;;;;2.60;1.10;;;6.30;61.50;;;;;;4941559;28;117556;-61
2021/03/20 10:54:21;;;;;;;3.10;1.20;;;6.30;62.40;;;;;;4972130;28;108874;-62
2021/03/20 10:56:49;;;;;;;2.37;1.10;;;6.20;61.50;;;;;;4963984;28;113961;-63
2021/03/20 10:59:31;;;;;;;1.63;1.10;;;6.40;62.10;;;;;;4962673;28;115328;-63
2021/03/20 11:01:57;;;;;;;2.93;1.10;;;6.10;59.80;;;;;;4969748;28;112112;-63
2021/03/20 11:04:31;;;;;;;2.77;1.10;;;6.20;61.90;;;;;;4969107;28;116855;-61
2021/03/20 11:06:59;;;;;;;2.07;1.03;;;7.60;63.50;;;;;;4975341;28;97639;-62
2021/03/20 11:09:27;;;;;;;2.33;1.13;;;7.10;63.00;;;;;;5006046;28;20627;-63
2021/03/20 11:12:01;;;;;;;2.87;1.30;;;6.90;62.50;;;;;;5006235;28;20698;-61
2021/03/20 11:14:28;;;;;;;2.03;1.30;;;7.20;62.00;;;;;;5001756;28;20214;-63
2021/03/20 11:17:00;;;;;;;2.20;1.30;;;7.60;61.80;;;;;;5006547;28;20226;-62
2021/03/20 11:19:32;;;;;;;2.17;1.50;;;7.50;60.90;;;;;;5005939;28;22036;-62
2021/03/20 11:22:01;;;;;;;3.00;1.17;;;7.60;60.40;;;;;;5005635;28;20414;-62
2021/03/20 11:24:35;;;;;;;2.63;1.33;;;8.60;60.40;;;;;;5005987;28;20329;-62
2021/03/20 11:27:17;;;;;;;3.67;1.50;;;7.90;59.10;;;;;;5005928;28;20229;-62
2021/03/20 11:29:45;;;;;;;2.63;1.27;;;7.90;58.90;;;;;;5006278;28;20561;-63
2021/03/20 11:32:23;;;;;;;2.60;1.60;;;7.70;58.90;;;;;;5005544;28;20226;-63
2021/03/20 11:35:00;;;;;;;2.13;1.40;;;7.80;59.00;;;;;;5006063;28;20329;-61
2021/03/20 11:37:27;;;;;;;2.47;1.50;;;6.90;58.60;;;;;;5006948;28;20328;-63
2021/03/20 11:39:54;;;;;;;3.57;1.60;;;7.40;58.80;;;;;;5005669;28;20664;-63
2021/03/20 11:42:26;;;;;;;2.00;1.60;;;7.20;59.30;;;;;;5004550;28;25766;-62
2021/03/20 11:44:53;;;;;;;3.90;1.50;;;6.90;60.00;;;;;;5006449;28;30663;-62
2021/03/20 11:47:24;;;;;;;2.70;1.63;;;6.50;60.60;;;;;;5006345;28;20222;-64
2021/03/20 11:49:53;;;;;;;1.90;1.40;;;7.70;62.40;;;;;;5006625;28;20925;-62
2021/03/20 11:52:22;;;;;;;3.13;1.90;;;6.40;61.80;;;;;;5005469;28;20293;-63
2021/03/20 11:55:01;;;;;;;2.70;1.13;;;6.60;62.80;;;;;;5005725;28;20521;-63
2021/03/20 11:57:43;;;;;;;1.97;1.47;;;6.70;60.40;;;;;;5005891;28;20975;-62
2021/03/20 12:00:41;;;;;;;2.30;1.30;;;6.90;62.10;;;;;;4986560;28;20284;-62
2021/03/20 12:03:28;;;;;;;4.93;3.23;;;6.80;59.50;;;;;;5005896;28;20292;-63
2021/03/20 12:06:20;;;;;;;7.07;3.80;;;7.50;61.10;;;;;;5004648;28;20637;-62
2021/03/20 12:08:48;;;;;;;2.07;1.40;;;8.40;61.40;;;;;;5006643;28;20594;-63
2021/03/20 12:11:15;;;;;;;1.50;1.23;;;7.80;61.30;;;;;;5005740;28;20552;-63
2021/03/20 12:13:53;;;;;;;3.53;1.43;;;8.10;60.40;;;;;;5006057;28;20226;-62
2021/03/20 12:16:39;;;;;;;5.87;2.07;;;8.20;59.80;;;;;;5005643;28;20226;-63
2021/03/20 12:19:08;;;;;;;4.27;2.20;;;8.90;59.20;;;;;;5005357;28;20420;-63
2021/03/20 12:21:57;;;;;;;4.17;2.30;;;8.40;57.50;;;;;;5005683;28;20411;-62
2021/03/20 12:24:28;;;;;;;3.13;1.43;;;8.60;56.50;;;;;;5003324;28;20610;-62
2021/03/20 12:26:55;;;;;;;2.93;1.33;;;8.50;57.70;;;;;;5012518;28;20462;-63
2021/03/20 12:29:35;;;;;;;3.10;1.57;;;8.60;56.90;;;;;;5013258;28;20604;-62
2021/03/20 12:32:31;;;;;;;3.17;1.83;;;8.50;54.20;;;;;;5006779;28;20217;-62
2021/03/20 12:35:20;;;;;;;1.53;1.30;;;8.10;55.30;;;;;;5005523;28;20515;-63
2021/03/20 12:37:49;;;;;;;4.23;1.37;;;8.10;55.90;;;;;;5004790;28;20491;-63
2021/03/20 12:40:18;;;;;;;3.37;1.60;;;8.10;57.60;;;;;;5005680;28;20653;-62
2021/03/20 12:42:45;;;;;;;2.57;1.57;;;8.10;57.30;;;;;;5005700;28;20320;-62
2021/03/20 12:45:21;;;;;;;2.73;1.43;;;8.00;57.70;;;;;;5005537;28;20420;-62
2021/03/20 12:47:47;;;;;;;2.47;1.00;;;8.10;56.80;;;;;;5005537;28;20218;-62
2021/03/20 12:50:14;;;;;;;2.00;1.37;;;8.20;57.40;;;;;;5005448;28;20648;-63
2021/03/20 12:52:40;;;;;;;6.37;1.50;;;8.10;57.00;;;;;;5006008;28;20347;-62
2021/03/20 12:55:09;;;;;;;2.40;1.30;;;8.30;56.70;;;;;;5005044;28;20218;-63
2021/03/20 12:57:36;;;;;;;1.70;1.13;;;7.90;56.30;;;;;;5004651;28;20698;-63
2021/03/20 13:00:05;;;;;;;3.00;1.60;;;7.90;57.00;;;;;;5005685;28;20235;-62
2021/03/20 13:02:33;;;;;;;2.43;1.27;;;7.80;57.40;;;;;;5004830;28;20993;-62
2021/03/20 13:04:59;;;;;;;1.87;1.17;;;7.50;57.00;;;;;;5004718;28;20593;-62
2021/03/20 13:07:26;;;;;;;3.73;1.70;;;7.20;57.40;;;;;;5005472;28;20594;-62
2021/03/20 13:09:53;;;;;;;4.83;1.70;;;7.10;57.60;;;;;;5004965;28;20341;-62
2021/03/20 13:12:21;;;;;;;2.73;1.70;;;6.90;58.00;;;;;;5005106;28;20223;-62
2021/03/20 13:14:47;;;;;;;2.50;1.40;;;6.60;58.70;;;;;;5005106;28;20647;-63
2021/03/20 13:17:15;;;;;;;3.23;1.40;;;6.50;59.30;;;;;;5004984;28;20717;-63
2021/03/20 13:19:41;;;;;;;2.93;1.67;;;6.70;59.60;;;;;;4986385;28;20226;-62